createdAt,value
2023-02-11T00:00:34.405Z,66.28
2023-02-11T00:01:37.317Z,66.27
2023-02-11T00:02:39.573Z,66.62
2023-02-11T00:03:42.020Z,66.54
2023-02-11T00:04:44.255Z,66.93
2023-02-11T00:05:46.766Z,67.23
2023-02-11T00:06:48.930Z,67.03
2023-02-11T00:07:51.290Z,67.00
2023-02-11T00:08:54.252Z,67.21
2023-02-11T00:09:56.769Z,66.99
2023-02-11T00:10:59.163Z,66.93
2023-02-11T00:12:01.370Z,66.59
2023-02-11T00:13:03.576Z,66.50
2023-02-11T00:14:08.392Z,66.80
2023-02-11T00:15:11.500Z,66.75
2023-02-11T00:16:16.525Z,66.73
2023-02-11T00:17:18.716Z,66.33
2023-02-11T00:18:20.943Z,66.61
2023-02-11T00:19:23.151Z,66.62
2023-02-11T00:20:25.326Z,66.79
2023-02-11T00:21:27.936Z,66.91
2023-02-11T00:22:31.893Z,67.22
2023-02-11T00:23:34.480Z,67.14
2023-02-11T00:24:37.088Z,67.35
2023-02-11T00:25:44.816Z,67.10
2023-02-11T00:26:47.215Z,66.94
2023-02-11T00:27:49.400Z,66.96
2023-02-11T00:28:52.738Z,66.84
2023-02-11T00:29:55.028Z,67.08
2023-02-11T00:30:58.324Z,66.46
2023-02-11T00:32:05.225Z,66.60
2023-02-11T00:33:07.561Z,66.35
2023-02-11T00:34:09.768Z,66.56
2023-02-11T00:35:12.069Z,66.66
2023-02-11T00:36:20.739Z,66.75
2023-02-11T00:37:22.922Z,66.66
2023-02-11T00:38:25.279Z,66.68
2023-02-11T00:39:27.580Z,67.05
2023-02-11T00:40:29.797Z,67.14
2023-02-11T00:41:32.659Z,66.98
2023-02-11T00:42:35.715Z,66.94
2023-02-11T00:43:38.098Z,67.09
2023-02-11T00:44:40.448Z,67.06
2023-02-11T00:45:42.665Z,67.21
2023-02-11T00:46:44.920Z,66.98
2023-02-11T00:47:47.198Z,67.07
2023-02-11T00:48:51.653Z,66.95
2023-02-11T00:49:57.221Z,66.92
2023-02-11T00:50:59.491Z,66.92
2023-02-11T00:52:01.706Z,66.98
2023-02-11T00:53:03.950Z,67.42
2023-02-11T00:54:06.368Z,67.51
2023-02-11T00:55:09.169Z,67.30
2023-02-11T00:56:11.411Z,67.08
2023-02-11T00:57:13.601Z,66.68
2023-02-11T00:58:15.767Z,66.67
2023-02-11T00:59:17.938Z,66.41
2023-02-11T01:00:20.696Z,66.30
2023-02-11T01:01:23.261Z,66.42
2023-02-11T01:02:25.589Z,66.23
2023-02-11T01:03:27.859Z,66.20
2023-02-11T01:04:30.980Z,66.35
2023-02-11T01:05:33.475Z,66.53
2023-02-11T01:06:35.665Z,66.75
2023-02-11T01:07:38.067Z,66.74
2023-02-11T01:08:40.439Z,66.98
2023-02-11T01:09:43.921Z,67.46
2023-02-11T01:10:53.200Z,67.41
2023-02-11T01:11:55.400Z,67.07
2023-02-11T01:12:57.616Z,67.30
2023-02-11T01:14:01.428Z,66.97
2023-02-11T01:15:05.380Z,66.82
2023-02-11T01:16:10.073Z,66.69
2023-02-11T01:17:12.470Z,66.93
2023-02-11T01:18:14.803Z,66.47
2023-02-11T01:19:17.164Z,66.29
2023-02-11T01:20:24.738Z,66.37
2023-02-11T01:21:26.951Z,66.49
2023-02-11T01:22:29.130Z,66.64
2023-02-11T01:23:31.446Z,66.66
2023-02-11T01:24:33.809Z,66.80
2023-02-11T01:25:36.335Z,66.60
2023-02-11T01:26:39.395Z,66.68
2023-02-11T01:27:41.798Z,66.83
2023-02-11T01:28:44.404Z,67.31
2023-02-11T01:29:46.840Z,67.43
2023-02-11T01:30:49.661Z,67.25
2023-02-11T01:31:52.477Z,67.08
2023-02-11T01:32:54.909Z,66.79
2023-02-11T01:33:57.106Z,66.43
2023-02-11T01:34:59.829Z,66.28
2023-02-11T01:36:04.249Z,66.56
2023-02-11T01:37:07.267Z,66.65
2023-02-11T01:38:16.602Z,67.10
2023-02-11T01:39:18.797Z,66.59
2023-02-11T01:40:22.092Z,66.64
2023-02-11T01:41:24.510Z,66.33
2023-02-11T01:42:26.716Z,66.19
2023-02-11T01:43:32.709Z,65.80
2023-02-11T01:44:38.184Z,66.10
2023-02-11T01:45:47.245Z,66.22
2023-02-11T01:46:49.519Z,66.52
2023-02-11T01:47:54.653Z,66.45
2023-02-11T01:49:08.936Z,66.25
2023-02-11T01:50:11.393Z,65.89
2023-02-11T01:51:18.691Z,65.80
2023-02-11T01:52:31.582Z,66.03
2023-02-11T01:53:54.435Z,66.41
2023-02-11T01:55:19.375Z,66.16
2023-02-11T01:56:43.039Z,65.91
2023-02-11T01:57:51.275Z,66.35
2023-02-11T01:58:59.453Z,66.00
2023-02-11T02:00:25.640Z,65.94
2023-02-11T02:01:31.990Z,65.93
2023-02-11T02:02:49.366Z,66.05
2023-02-11T02:04:00.104Z,66.11
2023-02-11T02:05:29.752Z,65.82
2023-02-11T02:06:37.681Z,66.25
2023-02-11T02:07:56.687Z,66.16
2023-02-11T02:09:17.144Z,66.40
2023-02-11T02:10:22.678Z,66.49
2023-02-11T02:11:26.305Z,66.24
2023-02-11T02:12:28.679Z,66.01
2023-02-11T02:13:32.869Z,65.85
2023-02-11T02:14:39.416Z,66.16
2023-02-11T02:15:49.780Z,66.06
2023-02-11T02:16:52.229Z,66.28
2023-02-11T02:18:18.002Z,66.14
2023-02-11T02:19:45.924Z,65.91
2023-02-11T02:21:07.744Z,65.66
2023-02-11T02:22:14.282Z,65.68
2023-02-11T02:23:54.060Z,65.92
2023-02-11T02:25:31.207Z,66.38
2023-02-11T02:27:08.477Z,66.10
2023-02-11T02:28:35.970Z,66.11
2023-02-11T02:29:55.984Z,65.98
2023-02-11T02:31:11.470Z,65.51
2023-02-11T02:32:35.256Z,65.41
2023-02-11T02:34:00.604Z,65.51
2023-02-11T02:35:22.926Z,65.91
2023-02-11T02:36:55.823Z,65.95
2023-02-11T02:38:08.590Z,66.35
2023-02-11T02:39:33.735Z,66.81
2023-02-11T02:40:51.000Z,66.52
2023-02-11T02:41:55.289Z,66.03
2023-02-11T02:42:59.694Z,66.03
2023-02-11T02:44:02.467Z,66.11
2023-02-11T02:45:05.162Z,66.34
2023-02-11T02:46:30.242Z,66.30
2023-02-11T02:47:32.480Z,66.62
2023-02-11T02:48:38.829Z,66.62
2023-02-11T02:49:41.123Z,66.40
2023-02-11T02:50:43.949Z,66.64
2023-02-11T02:52:15.710Z,66.50
2023-02-11T02:53:21.920Z,66.38
2023-02-11T02:55:01.777Z,65.97
2023-02-11T02:56:18.573Z,65.87
2023-02-11T02:57:38.892Z,65.79
2023-02-11T02:58:47.390Z,65.55
2023-02-11T03:00:14.368Z,65.84
2023-02-11T03:01:35.753Z,65.98
2023-02-11T03:03:15.185Z,66.43
2023-02-11T03:04:47.702Z,67.43
2023-02-11T03:06:08.879Z,67.40
2023-02-11T03:07:55.373Z,67.73
2023-02-11T03:09:06.069Z,67.50
2023-02-11T03:10:13.790Z,67.30
2023-02-11T03:11:19.090Z,67.35
2023-02-11T03:12:23.073Z,67.08
2023-02-11T03:13:32.189Z,67.06
2023-02-11T03:14:36.188Z,67.07
2023-02-11T03:15:43.713Z,66.68
2023-02-11T03:16:48.452Z,67.13
2023-02-11T03:17:55.473Z,67.18
2023-02-11T03:19:06.296Z,67.18
2023-02-11T03:20:11.911Z,67.31
2023-02-11T03:21:16.519Z,67.45
2023-02-11T03:22:35.158Z,67.30
2023-02-11T03:23:47.316Z,67.35
2023-02-11T03:24:49.873Z,66.77
2023-02-11T03:25:57.826Z,66.67
2023-02-11T03:27:24.347Z,66.49
2023-02-11T03:28:34.340Z,66.21
2023-02-11T03:29:42.515Z,66.36
2023-02-11T03:31:08.951Z,66.43
2023-02-11T03:32:19.513Z,67.21
2023-02-11T03:33:35.119Z,66.96
2023-02-11T03:34:55.557Z,67.11
2023-02-11T03:36:03.464Z,67.18
2023-02-11T03:37:39.801Z,67.18
2023-02-11T03:38:52.013Z,67.13
2023-02-11T03:40:00.143Z,66.90
2023-02-11T03:41:06.898Z,66.70
2023-02-11T03:42:12.159Z,66.32
2023-02-11T03:43:26.105Z,66.20
2023-02-11T03:44:34.768Z,66.30
2023-02-11T03:45:39.271Z,66.54
2023-02-11T03:46:47.914Z,66.66
2023-02-11T03:48:14.584Z,66.42
2023-02-11T03:49:21.700Z,66.20
2023-02-11T03:50:26.514Z,65.92
2023-02-11T03:51:30.994Z,65.98
2023-02-11T03:52:35.271Z,66.10
2023-02-11T03:53:40.810Z,66.27
2023-02-11T03:54:46.472Z,66.23
2023-02-11T03:55:51.405Z,66.00
2023-02-11T03:56:57.168Z,66.16
2023-02-11T03:57:59.378Z,66.05
2023-02-11T03:59:01.710Z,66.04
2023-02-11T04:00:05.355Z,66.09
2023-02-11T04:01:13.947Z,65.75
2023-02-11T04:02:16.233Z,65.90
2023-02-11T04:03:19.166Z,66.39
2023-02-11T04:04:21.454Z,66.30
2023-02-11T04:05:23.810Z,66.46
2023-02-11T04:06:26.314Z,66.36
2023-02-11T04:07:28.872Z,66.59
2023-02-11T04:08:31.976Z,66.36
2023-02-11T04:09:35.335Z,66.51
2023-02-11T04:10:37.806Z,66.75
2023-02-11T04:11:40.179Z,67.01
2023-02-11T04:12:42.444Z,67.41
2023-02-11T04:13:44.795Z,67.38
2023-02-11T04:14:47.091Z,67.41
2023-02-11T04:15:49.340Z,67.10
2023-02-11T04:16:51.905Z,67.06
2023-02-11T04:17:54.077Z,66.87
2023-02-11T04:18:57.176Z,66.41
2023-02-11T04:19:59.384Z,66.26
2023-02-11T04:21:01.702Z,66.17
2023-02-11T04:22:04.349Z,66.16
2023-02-11T04:23:06.706Z,66.00
2023-02-11T04:24:08.889Z,66.08
2023-02-11T04:25:11.313Z,65.99
2023-02-11T04:26:13.692Z,65.87
2023-02-11T04:27:16.154Z,65.84
2023-02-11T04:28:18.434Z,66.23
2023-02-11T04:29:20.897Z,66.24
2023-02-11T04:30:23.111Z,65.99
2023-02-11T04:31:25.693Z,66.14
2023-02-11T04:32:28.261Z,66.49
2023-02-11T04:33:30.510Z,66.44
2023-02-11T04:34:32.869Z,66.53
2023-02-11T04:35:35.253Z,67.15
2023-02-11T04:36:37.659Z,67.55
2023-02-11T04:37:39.907Z,67.47
2023-02-11T04:38:42.091Z,66.99
2023-02-11T04:39:44.282Z,66.69
2023-02-11T04:40:46.653Z,66.93
2023-02-11T04:41:49.079Z,66.92
2023-02-11T04:42:51.284Z,66.97
2023-02-11T04:43:53.697Z,67.05
2023-02-11T04:44:55.943Z,67.17
2023-02-11T04:45:58.908Z,67.59
2023-02-11T04:47:01.649Z,67.77
2023-02-11T04:48:04.335Z,67.88
2023-02-11T04:49:06.704Z,67.64
2023-02-11T04:50:09.111Z,67.34
2023-02-11T04:51:11.709Z,67.25
2023-02-11T04:52:14.551Z,67.08
2023-02-11T04:53:16.715Z,67.53
2023-02-11T04:54:20.011Z,67.64
2023-02-11T04:55:22.269Z,67.63
2023-02-11T04:56:24.498Z,67.64
2023-02-11T04:57:27.060Z,67.74
2023-02-11T04:58:29.423Z,67.67
2023-02-11T04:59:31.891Z,67.98
2023-02-11T05:00:34.061Z,68.36
2023-02-11T05:01:36.324Z,68.49
2023-02-11T05:02:38.991Z,68.39
2023-02-11T05:03:42.446Z,68.18
2023-02-11T05:04:44.681Z,68.53
2023-02-11T05:05:47.155Z,68.78
2023-02-11T05:06:50.644Z,68.96
2023-02-11T05:07:53.206Z,68.87
2023-02-11T05:08:55.395Z,68.84
2023-02-11T05:09:57.602Z,68.86
2023-02-11T05:11:02.106Z,68.94
2023-02-11T05:12:05.003Z,68.97
2023-02-11T05:13:07.358Z,69.31
2023-02-11T05:14:09.564Z,69.80
2023-02-11T05:15:11.748Z,69.89
2023-02-11T05:16:14.869Z,70.01
2023-02-11T05:17:17.139Z,69.95
2023-02-11T05:18:19.514Z,69.46
2023-02-11T05:19:21.819Z,69.68
2023-02-11T05:20:24.026Z,69.54
2023-02-11T05:21:26.412Z,69.48
2023-02-11T05:22:28.807Z,69.44
2023-02-11T05:23:30.978Z,69.66
2023-02-11T05:24:33.819Z,69.99
2023-02-11T05:25:36.119Z,70.00
2023-02-11T05:26:38.323Z,70.25
2023-02-11T05:27:40.921Z,70.27
2023-02-11T05:28:43.984Z,70.51
2023-02-11T05:29:46.369Z,70.88
2023-02-11T05:30:48.613Z,70.90
2023-02-11T05:31:50.803Z,71.21
2023-02-11T05:32:53.392Z,71.30
2023-02-11T05:33:55.647Z,71.44
2023-02-11T05:34:58.083Z,71.62
2023-02-11T05:36:01.976Z,71.53
2023-02-11T05:37:04.233Z,71.82
2023-02-11T05:38:06.874Z,71.86
2023-02-11T05:39:09.040Z,71.96
2023-02-11T05:40:11.728Z,72.04
2023-02-11T05:41:14.211Z,72.36
2023-02-11T05:42:16.382Z,72.66
2023-02-11T05:43:19.021Z,72.85
2023-02-11T05:44:21.249Z,72.79
2023-02-11T05:45:23.416Z,72.45
2023-02-11T05:46:25.851Z,71.86
2023-02-11T05:47:28.236Z,71.85
2023-02-11T05:48:31.217Z,71.57
2023-02-11T05:49:33.430Z,71.71
2023-02-11T05:50:35.747Z,71.93
2023-02-11T05:51:39.944Z,72.02
2023-02-11T05:52:42.128Z,72.22
2023-02-11T05:53:44.714Z,72.42
2023-02-11T05:54:47.082Z,72.31
2023-02-11T05:55:49.560Z,72.44
2023-02-11T05:56:52.241Z,72.14
2023-02-11T05:57:54.452Z,71.90
2023-02-11T05:58:59.354Z,71.62
2023-02-11T06:00:01.937Z,71.62
2023-02-11T06:01:14.522Z,71.56
2023-02-11T06:02:16.984Z,71.70
2023-02-11T06:03:19.459Z,72.08
2023-02-11T06:04:21.953Z,73.10
2023-02-11T06:05:24.360Z,74.29
2023-02-11T06:06:26.778Z,73.09
2023-02-11T06:07:28.965Z,72.12
2023-02-11T06:08:31.528Z,71.38
2023-02-11T06:09:33.756Z,71.76
2023-02-11T06:10:36.637Z,71.88
2023-02-11T06:11:38.817Z,72.22
2023-02-11T06:12:41.017Z,71.74
2023-02-11T06:13:43.782Z,71.79
2023-02-11T06:14:46.016Z,71.92
2023-02-11T06:16:02.377Z,71.44
2023-02-11T06:17:04.655Z,71.84
2023-02-11T06:18:08.016Z,71.49
2023-02-11T06:19:11.012Z,71.65
2023-02-11T06:20:13.488Z,71.13
2023-02-11T06:21:15.921Z,70.71
2023-02-11T06:22:18.119Z,70.62
2023-02-11T06:23:20.374Z,70.69
2023-02-11T06:24:44.290Z,70.93
2023-02-11T06:25:45.823Z,71.23
2023-02-11T06:26:48.202Z,71.31
2023-02-11T06:27:50.370Z,71.31
2023-02-11T06:28:52.772Z,70.91
2023-02-11T06:29:55.070Z,71.04
2023-02-11T06:30:58.185Z,71.23
2023-02-11T06:32:00.725Z,71.11
2023-02-11T06:33:03.340Z,71.10
2023-02-11T06:34:06.024Z,71.15
2023-02-11T06:35:10.743Z,70.70
2023-02-11T06:36:19.689Z,70.27
2023-02-11T06:37:21.956Z,70.12
2023-02-11T06:38:24.342Z,70.12
2023-02-11T06:39:26.534Z,69.95
2023-02-11T06:40:28.838Z,70.61
2023-02-11T06:41:31.337Z,70.73
2023-02-11T06:42:34.580Z,70.94
2023-02-11T06:43:37.179Z,70.91
2023-02-11T06:44:39.578Z,70.80
2023-02-11T06:45:41.763Z,70.33
2023-02-11T06:46:44.016Z,70.25
2023-02-11T06:47:46.207Z,69.92
2023-02-11T06:48:48.958Z,70.08
2023-02-11T06:49:51.313Z,70.17
2023-02-11T06:50:53.517Z,70.26
2023-02-11T06:51:55.940Z,70.56
2023-02-11T06:52:59.874Z,70.87
2023-02-11T06:54:02.402Z,70.78
2023-02-11T06:55:05.384Z,70.82
2023-02-11T06:56:10.783Z,70.65
2023-02-11T06:57:13.147Z,70.52
2023-02-11T06:58:15.528Z,70.41
2023-02-11T06:59:20.724Z,70.18
2023-02-11T07:00:23.256Z,70.15
2023-02-11T07:01:27.458Z,70.24
2023-02-11T07:02:30.059Z,70.48
2023-02-11T07:03:36.621Z,71.21
2023-02-11T07:04:39.174Z,71.39
2023-02-11T07:05:44.548Z,71.33
2023-02-11T07:06:46.758Z,71.23
2023-02-11T07:07:49.224Z,71.41
2023-02-11T07:08:51.434Z,71.74
2023-02-11T07:09:54.077Z,71.94
2023-02-11T07:10:56.302Z,71.99
2023-02-11T07:11:58.499Z,72.03
2023-02-11T07:13:00.960Z,72.18
2023-02-11T07:14:10.674Z,72.20
2023-02-11T07:15:12.884Z,72.66
2023-02-11T07:16:17.100Z,72.78
2023-02-11T07:17:19.342Z,72.83
2023-02-11T07:18:21.730Z,72.75
2023-02-11T07:19:24.046Z,73.20
2023-02-11T07:20:26.701Z,73.37
2023-02-11T07:21:29.031Z,73.63
2023-02-11T07:22:31.275Z,73.58
2023-02-11T07:23:34.302Z,73.54
2023-02-11T07:24:36.688Z,73.53
2023-02-11T07:25:39.058Z,73.55
2023-02-11T07:26:41.352Z,73.46
2023-02-11T07:27:43.635Z,73.51
2023-02-11T07:28:46.106Z,73.25
2023-02-11T07:29:48.728Z,73.56
2023-02-11T07:30:51.116Z,73.54
2023-02-11T07:31:53.382Z,73.56
2023-02-11T07:32:56.702Z,73.57
2023-02-11T07:34:01.376Z,73.76
2023-02-11T07:35:04.301Z,74.03
2023-02-11T07:36:08.746Z,74.39
2023-02-11T07:37:11.029Z,74.68
2023-02-11T07:38:13.215Z,74.62
2023-02-11T07:39:15.579Z,74.94
2023-02-11T07:40:18.026Z,75.11
2023-02-11T07:41:22.684Z,74.80
2023-02-11T07:42:24.876Z,75.06
2023-02-11T07:43:27.847Z,74.89
2023-02-11T07:44:30.067Z,74.90
2023-02-11T07:45:32.607Z,74.35
2023-02-11T07:46:35.843Z,74.55
2023-02-11T07:47:38.891Z,74.92
2023-02-11T07:48:41.286Z,74.78
2023-02-11T07:49:43.554Z,74.50
2023-02-11T07:50:45.960Z,74.36
2023-02-11T07:51:49.224Z,74.34
2023-02-11T07:52:51.409Z,74.57
2023-02-11T07:53:55.453Z,74.34
2023-02-11T07:54:57.622Z,73.95
2023-02-11T07:55:59.836Z,73.83
2023-02-11T07:57:02.070Z,74.31
2023-02-11T07:58:04.330Z,74.34
2023-02-11T07:59:06.491Z,74.23
2023-02-11T08:00:09.473Z,74.01
2023-02-11T08:01:19.496Z,73.68
2023-02-11T08:02:21.811Z,73.70
2023-02-11T08:03:23.999Z,73.66
2023-02-11T08:04:26.390Z,73.68
2023-02-11T08:05:30.408Z,72.90
2023-02-11T08:06:34.420Z,72.93
2023-02-11T08:07:36.794Z,72.92
2023-02-11T08:08:39.675Z,73.45
2023-02-11T08:09:41.965Z,73.40
2023-02-11T08:10:44.179Z,73.04
2023-02-11T08:11:46.582Z,72.83
2023-02-11T08:12:48.787Z,72.01
2023-02-11T08:13:51.860Z,71.69
2023-02-11T08:14:54.068Z,71.48
2023-02-11T08:15:57.833Z,71.66
2023-02-11T08:17:00.074Z,71.77
2023-02-11T08:18:02.293Z,71.90
2023-02-11T08:19:12.481Z,72.10
2023-02-11T08:20:14.678Z,72.21
2023-02-11T08:21:17.248Z,72.23
2023-02-11T08:22:19.739Z,71.33
2023-02-11T08:23:22.299Z,71.34
2023-02-11T08:24:24.498Z,71.35
2023-02-11T08:25:26.900Z,71.02
2023-02-11T08:26:32.066Z,71.04
2023-02-11T08:27:34.525Z,71.34
2023-02-11T08:28:41.530Z,71.25
2023-02-11T08:29:43.911Z,71.25
2023-02-11T08:30:46.132Z,71.54
2023-02-11T08:31:49.073Z,71.69
2023-02-11T08:32:51.441Z,71.73
2023-02-11T08:33:54.949Z,72.14
2023-02-11T08:34:57.351Z,72.35
2023-02-11T08:36:00.113Z,72.25
2023-02-11T08:37:02.481Z,72.06
2023-02-11T08:38:04.688Z,71.78
2023-02-11T08:39:19.186Z,72.00
2023-02-11T08:40:22.094Z,72.10
2023-02-11T08:41:24.267Z,71.96
2023-02-11T08:42:26.450Z,72.06
2023-02-11T08:43:29.066Z,71.85
2023-02-11T08:44:31.280Z,71.31
2023-02-11T08:45:33.734Z,71.14
2023-02-11T08:46:36.254Z,71.14
2023-02-11T08:47:39.868Z,71.64
2023-02-11T08:48:42.829Z,71.51
2023-02-11T08:49:45.135Z,71.73
2023-02-11T08:50:47.362Z,71.33
2023-02-11T08:51:50.328Z,71.42
2023-02-11T08:52:52.929Z,71.53
2023-02-11T08:53:55.984Z,71.57
2023-02-11T08:54:58.851Z,71.51
2023-02-11T08:56:01.323Z,71.68
2023-02-11T08:57:04.389Z,71.65
2023-02-11T08:58:06.825Z,71.48
2023-02-11T08:59:12.648Z,71.42
2023-02-11T09:00:17.116Z,71.45
2023-02-11T09:01:23.361Z,71.41
2023-02-11T09:02:26.242Z,71.48
2023-02-11T09:03:29.718Z,71.72
2023-02-11T09:04:31.994Z,71.82
2023-02-11T09:05:34.332Z,71.86
2023-02-11T09:06:36.591Z,71.90
2023-02-11T09:07:39.385Z,71.92
2023-02-11T09:08:46.435Z,71.81
2023-02-11T09:09:48.803Z,71.95
2023-02-11T09:10:51.598Z,72.03
2023-02-11T09:11:57.239Z,72.57
2023-02-11T09:12:59.878Z,72.45
2023-02-11T09:14:04.575Z,72.34
2023-02-11T09:15:07.242Z,72.29
2023-02-11T09:16:17.511Z,71.99
2023-02-11T09:17:19.785Z,71.86
2023-02-11T09:18:22.636Z,71.72
2023-02-11T09:19:24.919Z,71.22
2023-02-11T09:20:27.758Z,71.15
2023-02-11T09:21:30.928Z,71.38
2023-02-11T09:22:33.216Z,71.31
2023-02-11T09:23:36.401Z,71.17
2023-02-11T09:24:38.740Z,71.06
2023-02-11T09:25:41.368Z,70.83
2023-02-11T09:26:43.893Z,70.83
2023-02-11T09:27:46.360Z,71.02
2023-02-11T09:28:49.227Z,71.10
2023-02-11T09:29:51.774Z,70.99
2023-02-11T09:30:54.634Z,70.63
2023-02-11T09:31:57.700Z,70.16
2023-02-11T09:33:00.305Z,69.76
2023-02-11T09:34:06.124Z,69.57
2023-02-11T09:35:08.487Z,69.57
2023-02-11T09:36:10.677Z,69.53
2023-02-11T09:37:12.941Z,69.06
2023-02-11T09:38:15.576Z,68.71
2023-02-11T09:39:20.497Z,68.81
2023-02-11T09:40:23.331Z,68.51
2023-02-11T09:41:25.487Z,68.38
2023-02-11T09:43:07.037Z,68.27
2023-02-11T09:44:18.827Z,67.96
2023-02-11T09:45:25.703Z,67.97
2023-02-11T09:46:35.803Z,68.38
2023-02-11T09:47:50.920Z,68.12
2023-02-11T09:48:55.766Z,68.21
2023-02-11T09:50:06.715Z,68.48
2023-02-11T09:51:20.822Z,68.73
2023-02-11T09:52:58.451Z,68.95
2023-02-11T09:54:25.879Z,69.42
2023-02-11T09:55:42.777Z,69.44
2023-02-11T09:56:45.246Z,69.27
2023-02-11T09:57:47.738Z,69.50
2023-02-11T09:58:50.140Z,69.28
2023-02-11T09:59:52.406Z,69.21
2023-02-11T10:01:26.644Z,69.59
2023-02-11T10:02:45.133Z,69.85
2023-02-11T10:04:02.943Z,70.37
2023-02-11T10:05:27.003Z,70.79
2023-02-11T10:07:07.646Z,70.71
2023-02-11T10:08:28.179Z,70.74
2023-02-11T10:09:45.443Z,70.82
2023-02-11T10:10:58.465Z,70.55
2023-02-11T10:12:38.300Z,70.45
2023-02-11T10:13:54.281Z,70.20
2023-02-11T10:15:27.507Z,70.56
2023-02-11T10:16:55.727Z,70.53
2023-02-11T10:18:45.632Z,70.61
2023-02-11T10:20:30.004Z,71.08
2023-02-11T10:22:03.736Z,71.41
2023-02-11T10:23:29.557Z,70.79
2023-02-11T10:24:33.429Z,70.89
2023-02-11T10:25:47.503Z,70.61
2023-02-11T10:26:52.090Z,70.50
2023-02-11T10:27:58.058Z,70.53
2023-02-11T10:29:06.988Z,70.31
2023-02-11T10:30:36.333Z,70.44
2023-02-11T10:31:43.367Z,70.37
2023-02-11T10:32:51.495Z,70.32
2023-02-11T10:34:03.560Z,70.67
2023-02-11T10:35:15.540Z,71.01
2023-02-11T10:36:19.988Z,71.14
2023-02-11T10:37:22.285Z,70.90
2023-02-11T10:38:27.921Z,70.71
2023-02-11T10:39:31.869Z,71.00
2023-02-11T10:40:34.397Z,70.73
2023-02-11T10:41:45.771Z,70.43
2023-02-11T10:42:53.699Z,70.13
2023-02-11T10:44:00.594Z,70.26
2023-02-11T10:45:07.464Z,70.34
2023-02-11T10:46:17.683Z,70.57
2023-02-11T10:47:22.620Z,70.51
2023-02-11T10:48:45.287Z,70.66
2023-02-11T10:49:48.175Z,70.88
2023-02-11T10:50:50.813Z,70.85
2023-02-11T10:52:28.530Z,70.94
2023-02-11T10:53:30.795Z,71.31
2023-02-11T10:54:33.086Z,71.52
2023-02-11T10:55:36.481Z,71.25
2023-02-11T10:56:52.208Z,71.09
2023-02-11T10:57:58.865Z,71.06
2023-02-11T10:59:10.130Z,71.17
2023-02-11T11:00:18.366Z,71.54
2023-02-11T11:01:24.633Z,72.05
2023-02-11T11:02:34.354Z,72.23
2023-02-11T11:03:46.916Z,72.17
2023-02-11T11:04:49.503Z,72.23
2023-02-11T11:06:00.990Z,72.30
2023-02-11T11:07:21.467Z,72.42
2023-02-11T11:08:47.751Z,72.30
2023-02-11T11:10:04.402Z,72.16
2023-02-11T11:11:09.968Z,72.14
2023-02-11T11:12:30.936Z,72.25
2023-02-11T11:13:34.561Z,72.63
2023-02-11T11:14:36.762Z,72.67
2023-02-11T11:15:39.061Z,72.61
2023-02-11T11:16:54.177Z,72.67
2023-02-11T11:18:22.594Z,72.30
2023-02-11T11:19:25.964Z,72.36
2023-02-11T11:20:35.533Z,72.54
2023-02-11T11:21:47.324Z,72.55
2023-02-11T11:22:52.695Z,72.77
2023-02-11T11:23:56.556Z,72.39
2023-02-11T11:25:01.610Z,72.58
2023-02-11T11:26:05.999Z,72.35
2023-02-11T11:27:18.822Z,72.33
2023-02-11T11:28:26.891Z,72.40
2023-02-11T11:29:37.481Z,72.62
2023-02-11T11:30:42.993Z,73.46
2023-02-11T11:32:01.347Z,73.39
2023-02-11T11:33:04.011Z,73.43
2023-02-11T11:34:22.125Z,73.21
2023-02-11T11:35:30.370Z,73.39
2023-02-11T11:36:39.782Z,74.31
2023-02-11T11:37:42.134Z,74.76
2023-02-11T11:38:57.978Z,75.00
2023-02-11T11:40:10.086Z,74.48
2023-02-11T11:41:20.003Z,74.08
2023-02-11T11:42:30.241Z,73.80
2023-02-11T11:43:32.782Z,74.82
2023-02-11T11:44:39.974Z,74.88
2023-02-11T11:45:56.714Z,74.69
2023-02-11T11:47:11.395Z,74.52
2023-02-11T11:48:25.370Z,74.11
2023-02-11T11:49:35.504Z,73.95
2023-02-11T11:50:48.653Z,74.02
2023-02-11T11:52:14.135Z,73.79
2023-02-11T11:53:37.393Z,73.81
2023-02-11T11:54:43.625Z,73.64
2023-02-11T11:55:57.896Z,74.03
2023-02-11T11:57:11.239Z,73.99
2023-02-11T11:58:17.353Z,73.75
2023-02-11T11:59:20.444Z,73.48
2023-02-11T12:00:36.574Z,73.11
2023-02-11T12:02:08.521Z,72.67
2023-02-11T12:03:32.493Z,72.78
2023-02-11T12:04:50.905Z,72.39
2023-02-11T12:06:04.462Z,73.02
2023-02-11T12:07:40.554Z,73.69
2023-02-11T12:09:08.774Z,73.85
2023-02-11T12:10:31.049Z,74.01
2023-02-11T12:11:34.126Z,74.29
2023-02-11T12:12:54.627Z,74.97
2023-02-11T12:14:30.568Z,74.88
2023-02-11T12:15:50.961Z,74.75
2023-02-11T12:17:37.049Z,75.55
2023-02-11T12:19:16.813Z,75.58
2023-02-11T12:20:55.691Z,75.45
2023-02-11T12:22:24.426Z,75.03
2023-02-11T12:23:58.366Z,74.70
2023-02-11T12:25:07.490Z,74.76
2023-02-11T12:26:23.480Z,74.75
2023-02-11T12:27:45.324Z,74.89
2023-02-11T12:29:25.735Z,74.84
2023-02-11T12:30:58.540Z,75.02
2023-02-11T12:32:16.125Z,75.10
2023-02-11T12:33:26.005Z,75.44
2023-02-11T12:34:50.132Z,75.52
2023-02-11T12:36:01.512Z,75.75
2023-02-11T12:37:22.193Z,76.25
2023-02-11T12:38:39.071Z,76.37
2023-02-11T12:39:51.908Z,76.24
2023-02-11T12:41:19.001Z,76.44
2023-02-11T12:43:02.559Z,76.21
2023-02-11T12:44:07.539Z,75.96
2023-02-11T12:45:12.764Z,75.89
2023-02-11T12:46:35.011Z,76.08
2023-02-11T12:47:55.630Z,75.85
2023-02-11T12:49:03.728Z,75.46
2023-02-11T12:50:30.232Z,75.48
2023-02-11T12:51:56.785Z,75.53
2023-02-11T12:53:20.631Z,75.68
2023-02-11T12:54:26.012Z,75.58
2023-02-11T12:55:37.240Z,75.87
2023-02-11T12:57:15.067Z,76.62
2023-02-11T12:58:29.607Z,76.68
2023-02-11T12:59:50.250Z,76.73
2023-02-11T13:00:57.075Z,77.34
2023-02-11T13:02:04.438Z,77.51
2023-02-11T13:03:09.696Z,77.52
2023-02-11T13:04:26.840Z,77.98
2023-02-11T13:05:32.081Z,78.31
2023-02-11T13:06:59.562Z,78.43
2023-02-11T13:08:14.711Z,78.58
2023-02-11T13:09:24.747Z,79.06
2023-02-11T13:10:35.177Z,79.36
2023-02-11T13:11:44.301Z,79.35
2023-02-11T13:13:09.109Z,79.27
2023-02-11T13:14:24.506Z,79.26
2023-02-11T13:15:27.109Z,79.35
2023-02-11T13:16:50.316Z,80.05
2023-02-11T13:18:10.448Z,81.01
2023-02-11T13:19:24.110Z,81.13
2023-02-11T13:20:40.316Z,81.14
2023-02-11T13:22:00.955Z,81.09
2023-02-11T13:23:20.969Z,80.99
2023-02-11T13:24:48.026Z,80.83
2023-02-11T13:26:17.891Z,80.93
2023-02-11T13:27:50.953Z,81.22
2023-02-11T13:29:05.622Z,81.52
2023-02-11T13:30:29.108Z,81.71
2023-02-11T13:31:32.029Z,81.89
2023-02-11T13:32:56.600Z,81.93
2023-02-11T13:33:59.035Z,82.82
2023-02-11T13:35:01.459Z,82.81
2023-02-11T13:36:04.840Z,83.03
2023-02-11T13:37:22.093Z,83.18
2023-02-11T13:38:30.058Z,83.49
2023-02-11T13:39:32.495Z,83.29
2023-02-11T13:40:39.470Z,83.44
2023-02-11T13:41:43.595Z,83.35
2023-02-11T13:42:57.722Z,83.40
2023-02-11T13:44:19.551Z,83.74
2023-02-11T13:45:47.801Z,84.00
2023-02-11T13:46:55.020Z,83.79
2023-02-11T13:47:59.692Z,83.92
2023-02-11T13:49:02.351Z,84.01
2023-02-11T13:50:08.563Z,84.05
2023-02-11T13:51:15.404Z,84.15
2023-02-11T13:52:28.887Z,83.74
2023-02-11T13:53:51.708Z,83.85
2023-02-11T13:54:57.106Z,83.40
2023-02-11T13:56:09.560Z,83.06
2023-02-11T13:57:20.771Z,83.39
2023-02-11T13:58:29.005Z,83.96
2023-02-11T13:59:32.978Z,84.50
2023-02-11T14:00:35.617Z,85.01
2023-02-11T14:02:18.409Z,84.94
2023-02-11T14:03:53.708Z,84.19
2023-02-11T14:05:23.584Z,84.10
2023-02-11T14:06:46.884Z,84.07
2023-02-11T14:08:26.113Z,84.06
2023-02-11T14:09:38.398Z,83.98
2023-02-11T14:10:43.530Z,84.38
2023-02-11T14:11:56.253Z,84.07
2023-02-11T14:13:29.736Z,84.03
2023-02-11T14:14:33.900Z,84.02
2023-02-11T14:15:40.714Z,84.19
2023-02-11T14:16:58.593Z,84.43
2023-02-11T14:18:00.960Z,84.45
2023-02-11T14:19:03.453Z,84.52
2023-02-11T14:20:36.741Z,84.64
2023-02-11T14:21:43.156Z,84.32
2023-02-11T14:22:50.762Z,84.46
2023-02-11T14:23:56.010Z,84.32
2023-02-11T14:25:02.201Z,84.38
2023-02-11T14:26:20.067Z,84.26
2023-02-11T14:27:31.445Z,84.63
2023-02-11T14:28:35.536Z,84.67
2023-02-11T14:29:51.009Z,84.83
2023-02-11T14:31:14.623Z,84.85
2023-02-11T14:32:22.764Z,85.11
2023-02-11T14:33:44.030Z,84.96
2023-02-11T14:35:22.633Z,84.77
2023-02-11T14:36:44.659Z,84.53
2023-02-11T14:38:01.822Z,84.31
2023-02-11T14:39:04.368Z,84.09
2023-02-11T14:40:18.526Z,83.68